sensor_id;sensor_type;location;lat;lon;timestamp;P1;durP1;ratioP1;P2;durP2;ratioP2
51949;SDS011;37974;53.218;6.640;2023-01-05T17:40:43;43.77;;;6.10;;
51949;SDS011;37974;53.218;6.640;2023-01-05T17:44:08;37.60;;;5.82;;
51949;SDS011;37974;53.218;6.640;2023-01-05T17:46:56;26.60;;;4.78;;
51949;SDS011;37974;53.218;6.640;2023-01-05T17:49:46;44.65;;;6.13;;
51949;SDS011;37974;53.218;6.640;2023-01-05T17:52:11;40.40;;;6.63;;
51949;SDS011;37974;53.218;6.640;2023-01-05T17:55:02;45.80;;;6.30;;
51949;SDS011;37974;53.218;6.640;2023-01-05T17:57:54;43.70;;;6.30;;
51949;SDS011;37974;53.218;6.640;2023-01-05T18:00:48;40.70;;;6.15;;
51949;SDS011;37974;53.218;6.640;2023-01-05T18:06:31;47.92;;;7.18;;
51949;SDS011;37974;53.218;6.640;2023-01-05T18:09:17;38.10;;;6.30;;
51949;SDS011;37974;53.218;6.640;2023-01-05T18:11:43;46.97;;;6.63;;
51949;SDS011;37974;53.218;6.640;2023-01-05T18:14:19;42.13;;;5.90;;
51949;SDS011;37974;53.218;6.640;2023-01-05T18:16:58;40.95;;;5.72;;
51949;SDS011;37974;53.218;6.640;2023-01-05T18:19:31;47.65;;;6.47;;
51949;SDS011;37974;53.218;6.640;2023-01-05T18:22:00;50.53;;;7.20;;
51949;SDS011;37974;53.218;6.640;2023-01-05T18:24:33;49.97;;;6.90;;
51949;SDS011;37974;53.218;6.640;2023-01-05T18:27:34;50.17;;;7.30;;
51949;SDS011;37974;53.218;6.640;2023-01-05T18:30:01;49.38;;;6.65;;
51949;SDS011;37974;53.218;6.640;2023-01-05T18:32:30;53.13;;;7.65;;
51949;SDS011;37974;53.218;6.640;2023-01-05T18:38:58;48.58;;;7.68;;
51949;SDS011;37974;53.218;6.640;2023-01-05T18:41:47;58.38;;;7.97;;
51949;SDS011;37974;53.218;6.640;2023-01-05T18:44:37;42.00;;;7.05;;
51949;SDS011;37974;53.218;6.640;2023-01-05T18:47:05;53.22;;;8.85;;
51949;SDS011;37974;53.218;6.640;2023-01-05T18:49:33;54.42;;;8.27;;
51949;SDS011;37974;53.218;6.640;2023-01-05T18:52:40;40.70;;;7.43;;
51949;SDS011;37974;53.218;6.640;2023-01-05T18:55:42;49.58;;;7.68;;
51949;SDS011;37974;53.218;6.640;2023-01-05T18:59:39;45.10;;;7.25;;
51949;SDS011;37974;53.218;6.640;2023-01-05T19:02:25;62.85;;;8.45;;
51949;SDS011;37974;53.218;6.640;2023-01-05T19:05:24;56.35;;;8.25;;
51949;SDS011;37974;53.218;6.640;2023-01-05T19:07:52;46.92;;;8.10;;
51949;SDS011;37974;53.218;6.640;2023-01-05T19:11:12;46.38;;;8.50;;
51949;SDS011;37974;53.218;6.640;2023-01-05T19:13:48;66.05;;;8.80;;
51949;SDS011;37974;53.218;6.640;2023-01-05T19:16:37;52.83;;;8.10;;
51949;SDS011;37974;53.218;6.640;2023-01-05T19:19:32;48.65;;;9.90;;
51949;SDS011;37974;53.218;6.640;2023-01-05T19:22:06;54.47;;;8.50;;
51949;SDS011;37974;53.218;6.640;2023-01-05T19:24:39;74.72;;;10.40;;
51949;SDS011;37974;53.218;6.640;2023-01-05T19:27:37;61.85;;;10.25;;
51949;SDS011;37974;53.218;6.640;2023-01-05T19:30:09;60.40;;;11.20;;
51949;SDS011;37974;53.218;6.640;2023-01-05T19:32:54;60.40;;;13.10;;
51949;SDS011;37974;53.218;6.640;2023-01-05T19:35:39;80.93;;;14.77;;
51949;SDS011;37974;53.218;6.640;2023-01-05T19:38:24;67.43;;;12.95;;
51949;SDS011;37974;53.218;6.640;2023-01-05T19:41:15;60.95;;;13.98;;
51949;SDS011;37974;53.218;6.640;2023-01-05T19:43:55;67.97;;;12.60;;
51949;SDS011;37974;53.218;6.640;2023-01-05T19:46:34;58.28;;;12.23;;
51949;SDS011;37974;53.218;6.640;2023-01-05T19:49:17;48.30;;;11.30;;
51949;SDS011;37974;53.218;6.640;2023-01-05T19:51:45;46.30;;;13.18;;
51949;SDS011;37974;53.218;6.640;2023-01-05T19:54:17;50.33;;;12.93;;
51949;SDS011;37974;53.218;6.640;2023-01-05T19:56:48;37.40;;;12.05;;
51949;SDS011;37974;53.218;6.640;2023-01-05T19:59:16;45.58;;;12.73;;
51949;SDS011;37974;53.218;6.640;2023-01-05T20:01:45;45.05;;;12.95;;
51949;SDS011;37974;53.218;6.640;2023-01-05T20:04:12;45.72;;;13.00;;
51949;SDS011;37974;53.218;6.640;2023-01-05T20:06:39;46.50;;;15.15;;
51949;SDS011;37974;53.218;6.640;2023-01-05T20:09:12;41.40;;;12.80;;
51949;SDS011;37974;53.218;6.640;2023-01-05T20:11:57;43.20;;;13.65;;
51949;SDS011;37974;53.218;6.640;2023-01-05T20:14:25;47.20;;;12.57;;
51949;SDS011;37974;53.218;6.640;2023-01-05T20:17:02;36.97;;;11.90;;
51949;SDS011;37974;53.218;6.640;2023-01-05T20:19:32;42.15;;;13.35;;
51949;SDS011;37974;53.218;6.640;2023-01-05T20:22:00;46.00;;;13.35;;
51949;SDS011;37974;53.218;6.640;2023-01-05T20:24:28;51.08;;;13.77;;
51949;SDS011;37974;53.218;6.640;2023-01-05T20:26:57;43.17;;;13.90;;
51949;SDS011;37974;53.218;6.640;2023-01-05T20:29:24;35.15;;;13.32;;
51949;SDS011;37974;53.218;6.640;2023-01-05T20:31:53;45.60;;;15.00;;
51949;SDS011;37974;53.218;6.640;2023-01-05T20:34:21;42.20;;;14.18;;
51949;SDS011;37974;53.218;6.640;2023-01-05T20:36:53;43.60;;;14.20;;
51949;SDS011;37974;53.218;6.640;2023-01-05T20:39:20;45.15;;;15.02;;
51949;SDS011;37974;53.218;6.640;2023-01-05T20:41:50;44.75;;;14.88;;
51949;SDS011;37974;53.218;6.640;2023-01-05T20:44:21;49.63;;;15.95;;
51949;SDS011;37974;53.218;6.640;2023-01-05T20:46:58;48.30;;;17.10;;
51949;SDS011;37974;53.218;6.640;2023-01-05T20:49:31;40.13;;;15.65;;
51949;SDS011;37974;53.218;6.640;2023-01-05T20:52:22;45.47;;;15.75;;
51949;SDS011;37974;53.218;6.640;2023-01-05T20:59:19;46.42;;;16.10;;
51949;SDS011;37974;53.218;6.640;2023-01-05T21:01:33;53.42;;;15.88;;
51949;SDS011;37974;53.218;6.640;2023-01-05T21:04:22;43.55;;;16.30;;
51949;SDS011;37974;53.218;6.640;2023-01-05T21:06:55;55.75;;;17.30;;
51949;SDS011;37974;53.218;6.640;2023-01-05T21:09:29;51.45;;;17.85;;
51949;SDS011;37974;53.218;6.640;2023-01-05T21:12:19;42.28;;;18.08;;
51949;SDS011;37974;53.218;6.640;2023-01-05T21:15:09;50.60;;;18.60;;
51949;SDS011;37974;53.218;6.640;2023-01-05T21:18:38;55.65;;;19.95;;
51949;SDS011;37974;53.218;6.640;2023-01-05T21:25:52;56.42;;;21.63;;
51949;SDS011;37974;53.218;6.640;2023-01-05T21:32:14;48.30;;;20.30;;
51949;SDS011;37974;53.218;6.640;2023-01-05T21:35:16;45.42;;;19.48;;
51949;SDS011;37974;53.218;6.640;2023-01-05T21:42:08;51.78;;;20.75;;
51949;SDS011;37974;53.218;6.640;2023-01-05T21:45:31;53.05;;;21.15;;
51949;SDS011;37974;53.218;6.640;2023-01-05T21:48:01;50.05;;;20.73;;
51949;SDS011;37974;53.218;6.640;2023-01-05T21:51:29;44.47;;;20.98;;
51949;SDS011;37974;53.218;6.640;2023-01-05T21:54:29;47.00;;;20.83;;
51949;SDS011;37974;53.218;6.640;2023-01-05T21:58:05;45.97;;;21.13;;
51949;SDS011;37974;53.218;6.640;2023-01-05T22:00:45;51.00;;;22.15;;
51949;SDS011;37974;53.218;6.640;2023-01-05T22:07:06;56.80;;;23.58;;
51949;SDS011;37974;53.218;6.640;2023-01-05T22:10:13;55.58;;;22.23;;
51949;SDS011;37974;53.218;6.640;2023-01-05T22:13:17;48.47;;;22.48;;
51949;SDS011;37974;53.218;6.640;2023-01-05T22:15:43;51.75;;;23.05;;
51949;SDS011;37974;53.218;6.640;2023-01-05T22:18:43;52.42;;;23.20;;
51949;SDS011;37974;53.218;6.640;2023-01-05T22:21:16;49.40;;;23.63;;
51949;SDS011;37974;53.218;6.640;2023-01-05T22:23:58;57.33;;;26.42;;
51949;SDS011;37974;53.218;6.640;2023-01-05T22:30:25;53.17;;;26.00;;
51949;SDS011;37974;53.218;6.640;2023-01-05T22:33:03;58.00;;;27.90;;
51949;SDS011;37974;53.218;6.640;2023-01-05T22:41:52;60.92;;;27.02;;
51949;SDS011;37974;53.218;6.640;2023-01-05T22:48:44;56.72;;;25.00;;
51949;SDS011;37974;53.218;6.640;2023-01-05T22:51:38;56.03;;;25.90;;
51949;SDS011;37974;53.218;6.640;2023-01-05T22:54:32;57.85;;;25.77;;
51949;SDS011;37974;53.218;6.640;2023-01-05T22:57:49;63.33;;;27.08;;
51949;SDS011;37974;53.218;6.640;2023-01-05T23:00:32;60.28;;;27.08;;
51949;SDS011;37974;53.218;6.640;2023-01-05T23:04:07;59.72;;;25.95;;
51949;SDS011;37974;53.218;6.640;2023-01-05T23:07:01;57.53;;;25.40;;
51949;SDS011;37974;53.218;6.640;2023-01-05T23:16:17;51.53;;;23.42;;
51949;SDS011;37974;53.218;6.640;2023-01-05T23:22:16;53.53;;;23.35;;
51949;SDS011;37974;53.218;6.640;2023-01-05T23:25:23;67.00;;;22.70;;
51949;SDS011;37974;53.218;6.640;2023-01-05T23:28:21;53.20;;;22.48;;
51949;SDS011;37974;53.218;6.640;2023-01-05T23:30:52;39.08;;;18.95;;
51949;SDS011;37974;53.218;6.640;2023-01-05T23:33:42;42.30;;;15.85;;
51949;SDS011;37974;53.218;6.640;2023-01-05T23:36:29;47.88;;;17.95;;
51949;SDS011;37974;53.218;6.640;2023-01-05T23:39:08;46.30;;;17.65;;
51949;SDS011;37974;53.218;6.640;2023-01-05T23:42:04;43.08;;;16.70;;
51949;SDS011;37974;53.218;6.640;2023-01-05T23:45:14;36.53;;;14.80;;
51949;SDS011;37974;53.218;6.640;2023-01-05T23:48:06;42.53;;;16.88;;
51949;SDS011;37974;53.218;6.640;2023-01-05T23:51:12;49.25;;;17.33;;
51949;SDS011;37974;53.218;6.640;2023-01-05T23:53:56;44.58;;;15.60;;
51949;SDS011;37974;53.218;6.640;2023-01-05T23:56:48;37.00;;;13.93;;
51949;SDS011;37974;53.218;6.640;2023-01-05T23:59:36;49.70;;;15.32;;
